Time;durP1;ratioP1;P1;durP2;ratioP2;P2;SDS_P1;SDS_P2;PMS_P1;PMS_P2;Temp;Humidity;BMP_temperature;BMP_pressure;BME280_temperature;BME280_humidity;BME280_pressure;Samples;Min_cycle;Max_cycle;Signal;HPM_P1;HPM_P2
2023/07/13 00:00:37;;;;;;;5.82;1.63;;;;;;;-144.47;38.21;52574.06;5041798;28;20048;-69
2023/07/13 00:03:04;;;;;;;9.10;3.40;;;;;;;-144.47;38.37;52548.25;5042823;28;20025;-71
2023/07/13 00:05:30;;;;;;;11.77;4.43;;;;;;;-144.47;38.43;52540.31;5040856;28;20402;-70
2023/07/13 00:07:55;;;;;;;10.38;3.10;;;;;;;-144.47;38.29;52570.09;5041936;28;20036;-70
2023/07/13 00:10:21;;;;;;;8.20;2.35;;;;;;;-144.47;38.52;52552.22;5043423;28;20048;-69
2023/07/13 00:12:47;;;;;;;8.77;1.60;;;;;;;-144.47;38.39;52578.03;5043435;28;20029;-68
2023/07/13 00:15:22;;;;;;;4.07;1.45;;;;;;;-144.47;38.34;52566.13;5043442;28;20033;-70
2023/07/13 00:17:48;;;;;;;6.28;1.50;;;;;;;-144.47;38.01;52593.94;5035358;28;20033;-71
2023/07/13 00:20:14;;;;;;;8.82;1.70;;;;;;;-144.47;38.06;52544.28;5042732;28;20112;-71
2023/07/13 00:22:39;;;;;;;4.00;1.30;;;;;;;-144.47;38.57;52568.13;5041765;28;20036;-70
2023/07/13 00:25:05;;;;;;;5.03;1.50;;;;;;;-144.47;39.03;52578.03;5042521;28;20108;-70
2023/07/13 00:27:31;;;;;;;4.63;1.40;;;;;;;-144.47;39.77;52552.22;5040373;28;20025;-70
2023/07/13 00:29:59;;;;;;;4.55;1.40;;;;;;;-144.47;40.33;52589.97;5041102;28;20079;-71
2023/07/13 00:32:25;;;;;;;3.60;1.40;;;;;;;-144.47;40.76;52564.13;5040839;28;20052;-69
2023/07/13 00:34:51;;;;;;;3.65;1.45;;;;;;;-144.47;40.94;52560.16;5041221;28;20398;-70
2023/07/13 00:37:17;;;;;;;3.35;1.40;;;;;;;-144.47;40.53;52570.09;5031848;28;20035;-71
2023/07/13 00:39:42;;;;;;;7.80;2.00;;;;;;;-144.47;39.97;52570.09;5041490;28;20357;-69
2023/07/13 00:42:08;;;;;;;9.98;1.60;;;;;;;-144.47;39.90;52566.13;5045517;28;20095;-70
2023/07/13 00:44:33;;;;;;;5.47;1.48;;;;;;;-144.47;39.35;52597.91;5044269;28;20509;-71
2023/07/13 00:46:58;;;;;;;4.25;1.25;;;;;;;-144.47;39.69;52574.06;5045000;28;20041;-71
2023/07/13 00:49:27;;;;;;;5.72;1.55;;;;;;;-144.47;39.83;52562.16;5044808;28;21326;-71
2023/07/13 00:51:58;;;;;;;2.30;1.10;;;;;;;-144.47;39.76;52540.31;5045453;28;20027;-72
2023/07/13 00:54:28;;;;;;;6.43;1.40;;;;;;;-144.47;40.00;52574.06;5044344;28;20087;-71
2023/07/13 00:56:58;;;;;;;3.78;1.35;;;;;;;-144.47;40.28;52580.03;5045459;28;20025;-70
2023/07/13 00:59:24;;;;;;;5.28;1.50;;;;;;;-144.47;40.38;52556.19;5043177;28;20028;-67
2023/07/13 01:01:50;;;;;;;4.18;1.33;;;;;;;-144.47;40.98;52582.00;5037995;28;20035;-70
2023/07/13 01:04:16;;;;;;;5.65;1.25;;;;;;;-144.47;40.93;52546.25;5039775;28;20098;-69
2023/07/13 01:06:43;;;;;;;15.48;1.70;;;;;;;-144.47;40.98;52558.19;5041973;28;20116;-70
2023/07/13 01:09:10;;;;;;;10.85;1.75;;;;;;;-144.47;41.13;52554.22;5046139;28;20040;-69
2023/07/13 01:11:36;;;;;;;4.07;1.25;;;;;;;-144.47;41.10;52530.38;5044419;28;20021;-69
2023/07/13 01:14:03;;;;;;;7.50;1.35;;;;;;;-144.47;41.25;52550.25;5045008;28;20079;-69
2023/07/13 01:16:34;;;;;;;3.80;0.98;;;;;;;-144.47;41.37;52556.19;5050108;28;20064;-70
2023/07/13 01:19:03;;;;;;;6.38;1.20;;;;;;;-144.47;41.53;52544.28;5050385;28;20037;-70
2023/07/13 01:21:32;;;;;;;8.88;1.23;;;;;;;-144.47;41.66;52576.06;5049347;28;20437;-70
2023/07/13 01:23:57;;;;;;;;;;;;;;;-144.47;41.83;52578.03;5049717;28;20033;-69
2023/07/13 01:26:23;;;;;;;5.13;1.25;;;;;;;-144.47;42.09;52574.06;5051063;28;19920;-69
2023/07/13 01:28:48;;;;;;;7.55;1.35;;;;;;;-144.47;42.30;52538.31;5050371;28;20033;-70
2023/07/13 01:31:13;;;;;;;9.18;1.20;;;;;;;-144.47;42.47;52552.22;5051343;28;20016;-70
2023/07/13 01:33:40;;;;;;;7.05;1.30;;;;;;;-144.47;42.73;52564.13;5050769;28;20025;-68
2023/07/13 01:36:10;;;;;;;6.88;1.25;;;;;;;-144.47;43.24;52570.09;5050816;28;20028;-68
2023/07/13 01:38:36;;;;;;;10.32;1.33;;;;;;;-144.47;43.33;52593.94;5051114;28;20100;-68
2023/07/13 01:41:02;;;;;;;7.05;1.88;;;;;;;-144.47;43.58;52568.13;5051442;28;20020;-70
2023/07/13 01:43:28;;;;;;;5.07;1.27;;;;;;;-144.47;43.74;52566.13;5050059;28;20060;-70
2023/07/13 01:45:53;;;;;;;6.40;1.50;;;;;;;-144.47;43.81;52564.13;5050447;28;20056;-70
2023/07/13 01:48:20;;;;;;;9.07;1.63;;;;;;;-144.47;43.93;52556.19;5051445;28;20025;-70
2023/07/13 01:50:45;;;;;;;4.85;1.25;;;;;;;-144.47;44.08;52554.22;5049976;28;20548;-67
2023/07/13 01:53:11;;;;;;;5.57;1.58;;;;;;;-144.47;44.13;52554.22;5050459;28;20036;-69
2023/07/13 01:55:37;;;;;;;5.45;1.65;;;;;;;-144.47;44.23;52556.19;5050345;28;20414;-68
2023/07/13 01:58:03;;;;;;;5.18;1.30;;;;;;;-144.47;44.61;52536.34;5050280;28;20029;-69
2023/07/13 02:00:28;;;;;;;11.23;2.53;;;;;;;-144.47;44.78;52570.09;5050488;28;20167;-70
2023/07/13 02:02:54;;;;;;;2.75;1.10;;;;;;;-144.47;45.16;52558.19;5050976;28;20029;-70
2023/07/13 02:05:19;;;;;;;6.78;1.85;;;;;;;-144.47;45.33;52572.09;5049934;28;20033;-67
2023/07/13 02:07:46;;;;;;;3.65;1.30;;;;;;;-144.47;45.48;52574.06;5045680;28;20025;-69
2023/07/13 02:10:11;;;;;;;5.53;1.48;;;;;;;-144.47;45.75;52554.22;5046743;28;20017;-70
2023/07/13 02:12:37;;;;;;;10.35;1.55;;;;;;;-144.47;45.90;52542.28;5048775;28;20024;-70
2023/07/13 02:15:04;;;;;;;5.70;1.50;;;;;;;-144.47;46.63;52560.16;5048748;28;20064;-70
2023/07/13 02:17:29;;;;;;;5.38;1.30;;;;;;;-144.47;47.15;52554.22;5050737;28;20405;-67
2023/07/13 02:19:54;;;;;;;4.05;1.33;;;;;;;-144.47;47.27;52558.19;5066753;22;20048;-64
2023/07/13 02:22:21;;;;;;;6.25;1.30;;;;;;;-144.47;47.62;52568.13;5056223;28;20029;-67
2023/07/13 02:24:46;;;;;;;4.47;1.40;;;;;;;-144.47;47.86;52554.22;5047854;28;20029;-66
2023/07/13 02:27:11;;;;;;;3.08;1.50;;;;;;;-144.47;48.29;52564.13;5049317;28;20023;-66
2023/07/13 02:29:37;;;;;;;6.68;2.05;;;;;;;-144.47;48.60;52564.13;5047814;28;20458;-67
2023/07/13 02:32:02;;;;;;;5.55;1.17;;;;;;;-144.47;48.85;52546.25;5049097;28;20028;-68
2023/07/13 02:34:28;;;;;;;6.32;1.40;;;;;;;-144.47;49.26;52538.31;5048137;28;20497;-66
2023/07/13 02:36:53;;;;;;;10.48;1.50;;;;;;;-144.47;49.38;52556.19;5048104;28;20450;-67
2023/07/13 02:39:18;;;;;;;5.35;1.38;;;;;;;-144.47;49.85;52570.09;5043713;28;20388;-67
2023/07/13 02:41:44;;;;;;;5.53;1.20;;;;;;;-144.47;50.32;52548.25;5041618;28;20029;-65
2023/07/13 02:44:12;;;;;;;5.38;1.42;;;;;;;-144.47;50.85;52542.28;5046868;28;20029;-67
2023/07/13 02:46:37;;;;;;;6.13;2.00;;;;;;;-144.47;51.06;52556.19;5048617;28;20016;-64
2023/07/13 02:49:04;;;;;;;5.60;1.85;;;;;;;-144.47;51.40;52554.22;5048353;28;20546;-65
2023/07/13 02:51:29;;;;;;;4.72;1.40;;;;;;;-144.47;51.50;52554.22;5047791;28;20056;-67
2023/07/13 02:53:55;;;;;;;4.40;1.33;;;;;;;-144.47;51.56;52538.31;5047568;28;20110;-64
2023/07/13 02:56:25;;;;;;;6.60;1.58;;;;;;;-144.47;51.53;52558.19;5037205;28;20047;-66
2023/07/13 02:58:51;;;;;;;5.10;1.80;;;;;;;-144.47;51.66;52538.31;5046272;28;20090;-65
2023/07/13 03:01:17;;;;;;;5.65;1.42;;;;;;;-144.47;51.73;52560.16;5048172;28;20036;-66
2023/07/13 03:03:43;;;;;;;9.00;1.35;;;;;;;-144.47;51.58;52536.34;5046863;28;20120;-66
2023/07/13 03:06:09;;;;;;;6.32;1.83;;;;;;;-144.47;51.73;52554.22;5033583;28;20167;-66
2023/07/13 03:08:34;;;;;;;4.15;1.40;;;;;;;-144.47;51.69;52572.09;5021499;28;20032;-64
2023/07/13 03:11:12;;;;;;;5.60;1.40;;;;;;;-144.47;51.88;52568.13;5019034;28;20387;-68
2023/07/13 03:13:39;;;;;;;9.05;1.80;;;;;;;-144.47;52.27;52548.25;5020640;28;20108;-66
2023/07/13 03:16:05;;;;;;;8.20;1.67;;;;;;;-144.47;52.40;52542.28;5042659;28;20581;-66
2023/07/13 03:18:31;;;;;;;3.05;1.45;;;;;;;-144.47;52.37;52546.25;5048863;28;20035;-68
2023/07/13 03:20:57;;;;;;;7.53;1.67;;;;;;;-144.47;52.55;52572.09;5030628;28;20029;-64
2023/07/13 03:23:22;;;;;;;10.63;1.77;;;;;;;-144.47;53.01;52558.19;5034598;28;20017;-66
2023/07/13 03:25:48;;;;;;;6.03;1.30;;;;;;;-144.47;52.96;52558.19;5034585;28;20344;-67
2023/07/13 03:28:14;;;;;;;4.85;1.40;;;;;;;-144.47;53.24;52562.16;5047575;28;20045;-67
2023/07/13 03:30:40;;;;;;;4.22;1.33;;;;;;;-144.47;53.41;52538.31;5045394;28;20044;-67
2023/07/13 03:33:05;;;;;;;8.95;1.85;;;;;;;-144.47;53.63;52597.91;5046138;28;20040;-64
2023/07/13 03:35:32;;;;;;;14.20;2.15;;;;;;;-144.47;53.78;52554.22;5033076;28;20053;-67
2023/07/13 03:37:58;;;;;;;6.60;1.60;;;;;;;-144.47;54.08;52542.28;5034673;28;20024;-68
2023/07/13 03:40:25;;;;;;;5.25;1.48;;;;;;;-144.47;54.26;52526.41;5048031;28;20025;-67
2023/07/13 03:42:50;;;;;;;4.10;1.63;;;;;;;-144.47;54.25;52556.19;5048106;28;20052;-68
2023/07/13 03:45:15;;;;;;;4.53;1.80;;;;;;;-144.47;54.60;52530.38;5032902;28;20501;-64
2023/07/13 03:47:41;;;;;;;6.90;1.80;;;;;;;-144.47;54.92;52548.25;5028639;28;20049;-66
2023/07/13 03:50:07;;;;;;;9.05;2.03;;;;;;;-144.47;55.27;52532.38;5009768;28;20029;-64
2023/07/13 03:52:32;;;;;;;8.02;2.25;;;;;;;-144.47;55.39;52554.22;5027065;28;20025;-68
2023/07/13 03:54:57;;;;;;;8.82;2.33;;;;;;;-144.47;55.52;52568.13;5009504;28;20021;-67
2023/07/13 03:57:23;;;;;;;6.82;2.33;;;;;;;-144.47;55.60;52574.06;5027590;28;20144;-67
2023/07/13 03:59:48;;;;;;;7.40;1.98;;;;;;;-144.47;55.75;52540.31;5026643;28;20124;-64
2023/07/13 04:02:13;;;;;;;9.02;2.17;;;;;;;-144.47;55.95;52558.19;5027751;28;20037;-67
2023/07/13 04:04:40;;;;;;;8.35;2.03;;;;;;;-144.47;56.19;52554.22;5026918;28;20017;-65
2023/07/13 04:07:08;;;;;;;7.32;1.90;;;;;;;-144.47;56.30;52554.22;5023295;28;20079;-65
2023/07/13 04:09:33;;;;;;;10.52;2.42;;;;;;;-144.47;56.14;52544.28;5028436;28;20029;-67
2023/07/13 04:11:58;;;;;;;4.03;1.60;;;;;;;-144.47;56.18;52574.06;5013320;28;20048;-64
2023/07/13 04:14:24;;;;;;;4.93;1.85;;;;;;;-144.47;56.08;52562.16;5025305;28;20104;-67
2023/07/13 04:16:49;;;;;;;4.20;1.70;;;;;;;-144.47;56.27;52554.22;5044828;28;20045;-67
2023/07/13 04:19:15;;;;;;;6.57;2.00;;;;;;;-144.47;56.15;52532.38;5035100;28;20061;-65
2023/07/13 04:21:40;;;;;;;6.90;2.05;;;;;;;-144.47;56.34;52570.09;5022215;28;20030;-66
2023/07/13 04:24:06;;;;;;;9.50;2.15;;;;;;;-144.47;56.42;52542.28;5003153;28;20105;-64
2023/07/13 04:26:31;;;;;;;11.77;2.00;;;;;;;-144.47;56.56;52546.25;5024238;28;20087;-66
2023/07/13 04:28:57;;;;;;;9.90;2.67;;;;;;;-144.47;56.27;52564.13;5021347;28;20056;-67
2023/07/13 04:31:22;;;;;;;6.82;2.17;;;;;;;-144.47;56.86;52546.25;5003957;28;20476;-67
2023/07/13 04:33:48;;;;;;;11.57;2.03;;;;;;;-144.47;57.22;52556.19;5021264;28;20038;-64
2023/07/13 04:36:15;;;;;;;6.43;1.85;;;;;;;-144.47;57.09;52550.25;5024874;28;20044;-66
2023/07/13 04:38:41;;;;;;;7.18;2.05;;;;;;;-144.47;57.23;52536.34;5024227;28;20018;-69
2023/07/13 04:41:08;;;;;;;7.28;2.20;;;;;;;-144.47;56.62;52554.22;5022909;28;20120;-66
2023/07/13 04:43:34;;;;;;;7.88;1.98;;;;;;;-144.47;57.10;52570.09;5021497;28;20036;-68
2023/07/13 04:46:07;;;;;;;6.88;2.10;;;;;;;-144.47;56.52;52566.13;5006109;28;20407;-66
2023/07/13 04:48:33;;;;;;;10.15;2.20;;;;;;;-144.47;56.48;52550.25;5024949;28;20083;-68
2023/07/13 04:50:59;;;;;;;7.40;2.70;;;;;;;-144.47;56.40;52554.22;5023022;28;20109;-65
2023/07/13 04:53:25;;;;;;;10.52;2.08;;;;;;;-144.47;56.28;52548.25;5023392;28;20109;-67
2023/07/13 04:55:51;;;;;;;10.55;2.08;;;;;;;-144.47;56.28;52536.34;5027811;28;20072;-70
2023/07/13 04:58:17;;;;;;;10.10;2.20;;;;;;;-144.47;56.22;52578.03;5022637;28;20022;-67
2023/07/13 05:00:42;;;;;;;7.30;2.20;;;;;;;-144.47;56.06;52580.03;5022280;28;20025;-69
2023/07/13 05:03:08;;;;;;;5.97;2.15;;;;;;;-144.47;56.04;52526.41;5032453;28;20071;-66
2023/07/13 05:05:33;;;;;;;8.82;1.90;;;;;;;-144.47;56.12;52572.09;5033319;28;20054;-69
2023/07/13 05:07:59;;;;;;;6.32;2.38;;;;;;;-144.47;55.80;52550.25;5041088;28;20048;-68
2023/07/13 05:10:25;;;;;;;9.88;2.13;;;;;;;-144.47;55.47;52558.19;5035428;28;20028;-69
2023/07/13 05:12:50;;;;;;;8.23;1.60;;;;;;;-144.47;55.15;52562.16;5026127;28;20108;-68
2023/07/13 05:15:20;;;;;;;8.90;2.17;;;;;;;-144.47;54.83;52591.94;5035477;28;20028;-66
2023/07/13 05:17:46;;;;;;;5.30;1.98;;;;;;;-144.47;54.49;52538.31;5021283;28;20114;-67
2023/07/13 05:20:11;;;;;;;8.40;2.10;;;;;;;-144.47;54.23;52544.28;5035515;28;20028;-68
2023/07/13 05:22:37;;;;;;;8.32;2.00;;;;;;;-144.47;54.33;52587.97;5049765;28;20028;-69
2023/07/13 05:25:06;;;;;;;9.98;2.38;;;;;;;-144.47;54.25;52560.16;5029849;28;20041;-68
2023/07/13 05:27:31;;;;;;;10.63;2.20;;;;;;;-144.47;53.62;52546.25;5041256;28;20108;-68
2023/07/13 05:29:57;;;;;;;10.77;2.00;;;;;;;-144.47;53.14;52550.25;5031902;28;20108;-67
2023/07/13 05:32:22;;;;;;;6.97;2.00;;;;;;;-144.47;53.17;52556.19;5032795;28;20188;-68
2023/07/13 05:34:47;;;;;;;13.23;2.15;;;;;;;-144.47;52.64;52558.19;5043821;28;20118;-68
2023/07/13 05:37:13;;;;;;;9.65;1.45;;;;;;;-144.47;52.21;52564.13;5018439;28;20029;-67
2023/07/13 05:39:38;;;;;;;7.10;1.65;;;;;;;-144.47;52.57;52552.22;5028323;28;20063;-67
2023/07/13 05:42:04;;;;;;;5.75;1.83;;;;;;;-144.47;54.43;52566.13;5038425;28;20038;-67
2023/07/13 05:44:29;;;;;;;55.38;5.03;;;;;;;-144.47;54.03;52574.06;5045190;28;20067;-67
2023/07/13 05:46:56;;;;;;;11.35;1.95;;;;;;;-144.47;53.94;52556.19;5050252;28;20032;-68
2023/07/13 05:49:23;;;;;;;5.38;1.80;;;;;;;-144.47;53.68;52570.09;5031275;28;20546;-68
2023/07/13 05:51:48;;;;;;;13.05;3.00;;;;;;;-144.47;53.06;52572.09;5030364;28;20663;-66
2023/07/13 05:54:14;;;;;;;14.27;2.15;;;;;;;-144.47;52.82;52568.13;5034558;28;20033;-68
2023/07/13 05:56:39;;;;;;;7.22;3.28;;;;;;;-144.47;52.34;52578.03;5030142;28;20078;-65
2023/07/13 05:59:05;;;;;;;13.20;2.20;;;;;;;-144.47;52.02;52572.09;5041597;28;20044;-66
2023/07/13 06:01:30;;;;;;;6.18;1.95;;;;;;;-144.47;51.65;52576.06;5038261;28;20143;-68
2023/07/13 06:03:56;;;;;;;4.75;1.80;;;;;;;-144.47;51.56;52589.97;5041810;28;20100;-67
2023/07/13 06:06:21;;;;;;;13.95;2.10;;;;;;;-144.47;51.43;52562.16;5043570;28;20041;-67
2023/07/13 06:08:46;;;;;;;11.18;1.90;;;;;;;-144.47;51.29;52566.13;5034961;28;20017;-68
2023/07/13 06:11:24;;;;;;;5.10;1.60;;;;;;;-144.47;51.51;52560.16;5032061;28;20025;-68
2023/07/13 06:13:49;;;;;;;6.10;1.98;;;;;;;-144.47;51.40;52578.03;5016037;28;20507;-66
2023/07/13 06:16:16;;;;;;;6.82;2.00;;;;;;;-144.47;51.27;52587.97;5049175;28;20581;-69
2023/07/13 06:18:42;;;;;;;6.05;1.65;;;;;;;-144.47;51.00;52578.03;5034350;28;20021;-69
2023/07/13 06:21:12;;;;;;;14.30;2.00;;;;;;;-144.47;50.65;52568.13;5036202;28;20187;-66
2023/07/13 06:23:38;;;;;;;13.68;1.88;;;;;;;-144.47;50.54;52550.25;5046810;28;20552;-65
2023/07/13 06:26:04;;;;;;;9.88;2.13;;;;;;;-144.47;50.73;52566.13;5037159;28;20612;-69
2023/07/13 06:28:31;;;;;;;9.23;2.55;;;;;;;-144.47;50.40;52570.09;5035483;28;20038;-66
2023/07/13 06:30:57;;;;;;;9.35;2.30;;;;;;;-144.47;50.52;52562.16;5048783;28;20048;-66
2023/07/13 06:33:22;;;;;;;10.10;2.05;;;;;;;-144.47;50.58;52552.22;5024831;28;20503;-67
2023/07/13 06:35:47;;;;;;;18.25;2.28;;;;;;;-144.47;50.25;52580.03;5029065;28;20025;-67
2023/07/13 06:38:13;;;;;;;11.63;1.95;;;;;;;-144.47;49.36;52554.22;5028255;28;20013;-69
2023/07/13 06:40:38;;;;;;;13.15;1.65;;;;;;;-144.47;49.87;52566.13;5039034;28;20036;-67
2023/07/13 06:43:04;;;;;;;11.00;2.15;;;;;;;-144.47;49.47;52558.19;5034769;28;20029;-69
2023/07/13 06:45:29;;;;;;;7.32;1.83;;;;;;;-144.47;49.54;52560.16;5039476;28;20037;-67
2023/07/13 06:47:54;;;;;;;7.47;1.70;;;;;;;-144.47;48.60;52570.09;5030915;28;20111;-69
2023/07/13 06:50:20;;;;;;;9.18;1.98;;;;;;;-144.47;48.41;52572.09;5034527;28;20025;-68
2023/07/13 06:52:45;;;;;;;8.07;1.67;;;;;;;-144.47;48.46;52585.97;5044690;28;20135;-65
2023/07/13 06:55:11;;;;;;;6.32;1.98;;;;;;;-144.47;47.63;52585.97;5038329;28;20083;-68
2023/07/13 06:57:36;;;;;;;6.82;1.50;;;;;;;-144.47;47.74;52578.03;5044240;28;20028;-69
2023/07/13 07:00:01;;;;;;;6.85;1.85;;;;;;;-144.47;46.69;52572.09;5038342;28;20025;-66
2023/07/13 07:02:27;;;;;;;5.93;1.55;;;;;;;-144.47;46.19;52580.03;5044027;28;20020;-68
2023/07/13 07:04:54;;;;;;;6.63;1.83;;;;;;;-144.47;46.15;52574.06;5030443;28;20069;-69
2023/07/13 07:07:19;;;;;;;6.60;1.33;;;;;;;-144.47;45.77;52570.09;5025873;28;20052;-69
2023/07/13 07:09:45;;;;;;;7.43;1.85;;;;;;;-144.47;46.69;52556.19;4991116;28;20396;-66
2023/07/13 07:12:10;;;;;;;5.85;1.70;;;;;;;-144.47;47.25;52568.13;5024416;28;20025;-68
2023/07/13 07:14:35;;;;;;;6.22;1.60;;;;;;;-144.47;45.70;52587.97;5029373;28;20100;-68
2023/07/13 07:17:01;;;;;;;8.57;1.48;;;;;;;-144.47;46.02;52576.06;5046001;28;20501;-68
2023/07/13 07:19:29;;;;;;;7.88;1.20;;;;;;;-144.47;45.38;52568.13;5023784;28;20052;-68
2023/07/13 07:21:54;;;;;;;6.30;1.30;;;;;;;-144.47;45.60;52548.25;5033316;28;20049;-69
2023/07/13 07:24:20;;;;;;;5.90;1.52;;;;;;;-144.47;44.34;52570.09;5037654;28;20056;-70
2023/07/13 07:26:45;;;;;;;7.00;1.33;;;;;;;-144.47;43.79;52593.94;5037558;28;20053;-67
2023/07/13 07:29:10;;;;;;;6.05;1.70;;;;;;;-144.47;42.97;52556.19;5027179;28;20108;-69
2023/07/13 07:31:37;;;;;;;5.43;1.50;;;;;;;-144.47;43.46;52589.97;5027924;28;20105;-68
2023/07/13 07:34:02;;;;;;;4.00;1.30;;;;;;;-144.47;40.86;52582.00;5022124;28;20083;-68
2023/07/13 07:36:28;;;;;;;9.82;1.42;;;;;;;-144.47;40.18;52566.13;5029477;28;20025;-67
2023/07/13 07:38:53;;;;;;;2.90;1.48;;;;;;;-144.47;40.15;52595.91;5025928;28;20027;-69
2023/07/13 07:41:19;;;;;;;6.30;1.25;;;;;;;-144.47;39.81;52593.94;5030119;28;20095;-68
2023/07/13 07:43:44;;;;;;;8.90;1.35;;;;;;;-144.47;39.38;52589.97;5045958;28;20582;-67
2023/07/13 07:46:09;;;;;;;10.60;2.00;;;;;;;-144.47;39.08;52584.00;5019206;28;20033;-68
2023/07/13 07:48:35;;;;;;;4.75;1.20;;;;;;;-144.47;39.26;52605.84;5046023;28;20059;-68
2023/07/13 07:51:00;;;;;;;7.50;1.10;;;;;;;-144.47;38.50;52587.97;5037749;28;20380;-69
2023/07/13 07:53:25;;;;;;;11.80;1.20;;;;;;;-144.47;39.12;52558.19;5011296;28;20560;-68
2023/07/13 07:55:51;;;;;;;4.97;1.30;;;;;;;-144.47;39.72;52578.03;5046585;28;20489;-68
2023/07/13 07:58:17;;;;;;;8.43;1.45;;;;;;;-144.47;40.51;52570.09;5026315;28;20122;-67
2023/07/13 08:00:42;;;;;;;4.25;1.52;;;;;;;-144.47;40.74;52574.06;5027003;28;20115;-68
2023/07/13 08:03:07;;;;;;;7.43;1.27;;;;;;;-144.47;40.28;52560.16;5029467;28;20059;-67
2023/07/13 08:05:36;;;;;;;7.20;1.67;;;;;;;-144.47;40.37;52560.16;5026785;28;20083;-67
2023/07/13 08:08:01;;;;;;;4.50;1.33;;;;;;;-144.47;40.14;52562.16;5022272;28;20105;-68
2023/07/13 08:10:27;;;;;;;4.18;1.30;;;;;;;-144.47;39.93;52593.94;5011210;28;20105;-67
2023/07/13 08:12:52;;;;;;;3.95;1.10;;;;;;;-144.47;39.80;52574.06;5006184;28;20033;-69
2023/07/13 08:15:20;;;;;;;4.00;1.20;;;;;;;-144.47;39.53;52585.97;5026242;28;20112;-68
2023/07/13 08:17:46;;;;;;;7.65;1.38;;;;;;;-144.47;39.43;52576.06;5033974;28;20025;-68
2023/07/13 08:22:38;;;;;;;4.00;1.40;;;;;;;-144.47;39.74;52556.19;5047976;28;20045;-64
2023/07/13 08:25:04;;;;;;;5.82;1.63;;;;;;;-144.47;39.66;52593.94;5048041;28;20017;-66
2023/07/13 08:27:31;;;;;;;4.85;1.48;;;;;;;-144.47;39.77;52595.91;5049395;28;20067;-67
2023/07/13 08:29:57;;;;;;;5.85;1.23;;;;;;;-144.47;39.82;52585.97;5049358;28;20052;-65
2023/07/13 08:32:23;;;;;;;9.43;1.40;;;;;;;-144.47;39.81;52584.00;5043885;28;20064;-65
2023/07/13 08:34:49;;;;;;;5.20;1.75;;;;;;;-144.47;39.69;52619.75;5040077;28;20028;-63
2023/07/13 08:37:15;;;;;;;12.95;1.80;;;;;;;-144.47;39.29;52589.97;5028405;28;20040;-63
2023/07/13 08:39:40;;;;;;;4.78;1.10;;;;;;;-144.47;38.87;52576.06;5021873;28;20472;-65
2023/07/13 08:42:18;;;;;;;4.65;1.35;;;;;;;-144.47;38.58;52574.06;5033313;28;20025;-65
2023/07/13 08:45:05;;;;;;;4.65;1.40;;;;;;;-144.47;38.10;52597.91;5039054;28;20029;-67
2023/07/13 08:47:36;;;;;;;9.07;1.70;;;;;;;-144.47;37.95;52591.94;5029853;28;20044;-66
2023/07/13 08:50:03;;;;;;;12.90;1.70;;;;;;;-144.47;37.91;52585.97;5028441;28;20030;-65
2023/07/13 08:52:43;;;;;;;8.55;1.50;;;;;;;-144.47;37.67;52560.16;5029573;28;20498;-63
2023/07/13 08:55:25;;;;;;;10.35;1.38;;;;;;;-144.47;37.42;52564.13;5028729;28;20026;-63
2023/07/13 08:58:15;;;;;;;6.22;1.20;;;;;;;-144.47;37.10;52607.84;5043189;28;20020;-67
2023/07/13 09:00:57;;;;;;;5.20;1.40;;;;;;;-144.47;36.57;52591.94;5031686;28;20037;-63
2023/07/13 09:03:29;;;;;;;4.95;1.25;;;;;;;-144.47;36.06;52629.69;5038828;28;20307;-66
2023/07/13 09:05:59;;;;;;;4.65;1.20;;;;;;;-144.47;36.03;52601.88;5037811;28;20064;-65
2023/07/13 09:08:46;;;;;;;9.35;1.35;;;;;;;-144.47;35.67;52595.91;5024181;28;20029;-65
2023/07/13 09:11:43;;;;;;;5.47;1.30;;;;;;;-144.47;35.93;52601.88;5032044;28;20548;-63
2023/07/13 09:14:46;;;;;;;4.85;1.52;;;;;;;-144.47;36.09;52597.91;5024240;28;20126;-64
2023/07/13 09:17:17;;;;;;;5.45;1.77;;;;;;;-144.47;36.53;52597.91;5054433;28;20529;-64
2023/07/13 09:19:46;;;;;;;6.22;1.55;;;;;;;-144.47;36.08;52585.97;5018670;28;20061;-63
2023/07/13 09:22:17;;;;;;;7.97;1.35;;;;;;;-144.47;35.71;52589.97;5031476;28;20041;-65
2023/07/13 09:25:07;;;;;;;5.32;1.20;;;;;;;-144.47;35.07;52593.94;5031541;28;20446;-63
2023/07/13 09:27:40;;;;;;;4.35;1.30;;;;;;;-144.47;35.14;52589.97;5014740;28;20036;-63
2023/07/13 09:30:14;;;;;;;5.40;1.15;;;;;;;-144.47;35.24;52578.03;5031583;28;20025;-65
2023/07/13 09:32:51;;;;;;;7.07;1.50;;;;;;;-144.47;35.08;52593.94;5001499;28;20029;-63
2023/07/13 09:35:20;;;;;;;7.97;1.33;;;;;;;-144.47;34.76;52578.03;5012868;28;20033;-65
2023/07/13 09:37:46;;;;;;;9.68;1.20;;;;;;;-144.47;34.99;52603.84;5045627;28;20017;-64
2023/07/13 09:40:22;;;;;;;6.53;1.60;;;;;;;-144.47;34.96;52601.88;5031416;28;20025;-66
2023/07/13 09:42:48;;;;;;;5.35;1.45;;;;;;;-144.47;34.66;52584.00;5032006;28;20079;-66
2023/07/13 09:45:26;;;;;;;5.55;1.20;;;;;;;-144.47;35.02;52613.78;5029387;28;20498;-63
2023/07/13 09:48:12;;;;;;;4.53;1.35;;;;;;;-144.47;35.05;52607.84;5044044;28;20028;-66
2023/07/13 09:50:37;;;;;;;9.48;1.70;;;;;;;-144.47;35.52;52601.88;5034271;28;20041;-66
2023/07/13 09:53:03;;;;;;;10.40;1.42;;;;;;;-144.47;35.70;52595.91;5036969;28;20079;-65
2023/07/13 09:55:34;;;;;;;5.35;1.23;;;;;;;-144.47;35.76;52627.69;5035488;28;20803;-65
2023/07/13 09:58:26;;;;;;;6.47;1.73;;;;;;;-144.47;35.64;52621.72;5037762;28;20048;-64
2023/07/13 10:01:02;;;;;;;6.05;1.20;;;;;;;-144.47;34.52;52635.63;5043120;28;20049;-63
2023/07/13 10:03:32;;;;;;;3.50;1.27;;;;;;;-144.47;34.62;52607.84;5042184;28;20025;-65
2023/07/13 10:06:15;;;;;;;5.43;1.30;;;;;;;-144.47;34.62;52629.69;5029601;28;20028;-66
2023/07/13 10:08:40;;;;;;;10.63;1.60;;;;;;;-144.47;34.60;52591.94;5028292;28;20071;-65
2023/07/13 10:11:17;;;;;;;6.93;1.50;;;;;;;-144.47;34.63;52645.56;5033672;28;20025;-62
2023/07/13 10:13:48;;;;;;;4.43;1.10;;;;;;;-144.47;34.83;52623.72;5033920;28;20102;-66
2023/07/13 10:16:14;;;;;;;3.45;1.15;;;;;;;-144.47;34.19;52627.69;5037757;28;20037;-66
2023/07/13 10:18:51;;;;;;;8.65;2.15;;;;;;;-144.47;33.54;52647.56;5035717;28;20092;-66
2023/07/13 10:21:20;;;;;;;4.45;1.20;;;;;;;-144.47;33.67;52599.88;5044355;28;20029;-65
2023/07/13 10:23:51;;;;;;;7.07;1.50;;;;;;;-144.47;33.86;52671.38;5034778;28;20032;-66
2023/07/13 10:26:23;;;;;;;4.05;1.38;;;;;;;-144.47;35.48;52633.66;5033351;28;20048;-66
2023/07/13 10:28:52;;;;;;;8.75;1.65;;;;;;;-144.47;35.99;52613.78;5031572;28;20554;-65
2023/07/13 10:31:19;;;;;;;10.15;2.45;;;;;;;-144.47;36.53;52599.88;5041117;28;20025;-67
2023/07/13 10:33:45;;;;;;;7.78;1.80;;;;;;;-144.47;36.58;52601.88;5027877;28;20027;-68
2023/07/13 10:36:20;;;;;;;4.25;1.67;;;;;;;-144.47;36.53;52582.00;5021061;28;20051;-66
2023/07/13 10:38:49;;;;;;;4.30;1.20;;;;;;;-144.47;36.06;52623.72;5039400;28;20263;-65
2023/07/13 10:41:21;;;;;;;4.63;1.20;;;;;;;-144.47;35.24;52639.59;5034219;28;20103;-65
2023/07/13 10:43:55;;;;;;;5.50;1.50;;;;;;;-144.47;34.77;52621.72;5034266;28;20022;-66
2023/07/13 10:46:23;;;;;;;4.35;1.45;;;;;;;-144.47;34.39;52599.88;5031096;28;20025;-65
2023/07/13 10:48:54;;;;;;;3.40;1.08;;;;;;;-144.47;34.29;52619.75;5030997;28;20079;-66
2023/07/13 10:51:21;;;;;;;2.88;0.90;;;;;;;-144.47;34.57;52619.75;5030869;28;20028;-66
2023/07/13 10:53:47;;;;;;;5.18;1.40;;;;;;;-144.47;34.65;52613.78;5028361;28;20572;-63
2023/07/13 10:56:18;;;;;;;6.25;1.35;;;;;;;-144.47;34.52;52619.75;5013361;28;20112;-65
2023/07/13 10:58:44;;;;;;;5.10;1.45;;;;;;;-144.47;34.69;52611.81;5030133;28;20033;-65
2023/07/13 11:01:11;;;;;;;8.45;1.20;;;;;;;-144.47;34.13;52621.72;5026808;28;20022;-65
2023/07/13 11:03:37;;;;;;;8.95;1.45;;;;;;;-144.47;33.62;52613.78;5025521;28;20025;-64
2023/07/13 11:06:22;;;;;;;4.00;1.20;;;;;;;-144.47;33.50;52631.66;5038986;28;20031;-66
2023/07/13 11:08:47;;;;;;;4.15;1.00;;;;;;;-144.47;32.70;52635.63;5036374;28;20027;-62
2023/07/13 11:11:33;;;;;;;3.95;1.30;;;;;;;-144.47;32.13;52617.75;5038518;28;20017;-66
2023/07/13 11:14:04;;;;;;;2.33;0.90;;;;;;;-144.47;32.09;52627.69;5025727;28;20026;-67
2023/07/13 11:16:37;;;;;;;4.00;1.10;;;;;;;-144.47;32.13;52645.56;5011852;28;20140;-67
2023/07/13 11:19:02;;;;;;;9.57;1.20;;;;;;;-144.47;32.48;52651.53;5034030;28;20029;-66
2023/07/13 11:21:30;;;;;;;2.10;1.05;;;;;;;-144.47;32.21;52639.59;5030504;28;20036;-68